sensor_id;sensor_type;location;lat;lon;timestamp;P1;durP1;ratioP1;P2;durP2;ratioP2
52542;SDS011;38449;52.696;6.186;2023-04-03T00:00:31;4.03;;;2.00;;
52542;SDS011;38449;52.696;6.186;2023-04-03T00:02:58;2.35;;;1.80;;
52542;SDS011;38449;52.696;6.186;2023-04-03T00:05:25;2.47;;;1.90;;
52542;SDS011;38449;52.696;6.186;2023-04-03T00:07:52;2.53;;;2.05;;
52542;SDS011;38449;52.696;6.186;2023-04-03T00:10:18;3.33;;;1.75;;
52542;SDS011;38449;52.696;6.186;2023-04-03T00:12:45;4.20;;;2.00;;
52542;SDS011;38449;52.696;6.186;2023-04-03T00:15:12;3.97;;;2.20;;
52542;SDS011;38449;52.696;6.186;2023-04-03T00:17:39;2.47;;;1.92;;
52542;SDS011;38449;52.696;6.186;2023-04-03T00:20:05;3.47;;;1.88;;
52542;SDS011;38449;52.696;6.186;2023-04-03T00:22:32;3.20;;;1.92;;
52542;SDS011;38449;52.696;6.186;2023-04-03T00:24:58;3.65;;;2.25;;
52542;SDS011;38449;52.696;6.186;2023-04-03T00:27:25;4.03;;;1.58;;
52542;SDS011;38449;52.696;6.186;2023-04-03T00:29:51;3.90;;;1.73;;
52542;SDS011;38449;52.696;6.186;2023-04-03T00:32:18;2.80;;;1.90;;
52542;SDS011;38449;52.696;6.186;2023-04-03T00:34:44;3.13;;;1.60;;
52542;SDS011;38449;52.696;6.186;2023-04-03T00:37:10;3.65;;;1.80;;
52542;SDS011;38449;52.696;6.186;2023-04-03T00:39:37;3.95;;;2.08;;
52542;SDS011;38449;52.696;6.186;2023-04-03T00:42:03;2.78;;;1.70;;
52542;SDS011;38449;52.696;6.186;2023-04-03T00:46:59;2.95;;;1.63;;
52542;SDS011;38449;52.696;6.186;2023-04-03T00:49:26;3.22;;;1.63;;
52542;SDS011;38449;52.696;6.186;2023-04-03T00:51:54;3.95;;;2.03;;
52542;SDS011;38449;52.696;6.186;2023-04-03T00:54:26;4.13;;;2.88;;
52542;SDS011;38449;52.696;6.186;2023-04-03T00:56:53;3.58;;;2.00;;
52542;SDS011;38449;52.696;6.186;2023-04-03T00:59:24;4.28;;;2.00;;
52542;SDS011;38449;52.696;6.186;2023-04-03T01:01:56;4.38;;;2.50;;
52542;SDS011;38449;52.696;6.186;2023-04-03T01:04:29;4.55;;;2.08;;
52542;SDS011;38449;52.696;6.186;2023-04-03T01:07:10;3.08;;;2.10;;
52542;SDS011;38449;52.696;6.186;2023-04-03T01:09:41;3.90;;;2.15;;
52542;SDS011;38449;52.696;6.186;2023-04-03T01:12:16;3.58;;;1.83;;
52542;SDS011;38449;52.696;6.186;2023-04-03T01:14:54;5.47;;;2.50;;
52542;SDS011;38449;52.696;6.186;2023-04-03T01:25:32;4.65;;;1.95;;
52542;SDS011;38449;52.696;6.186;2023-04-03T01:27:59;4.20;;;2.13;;
52542;SDS011;38449;52.696;6.186;2023-04-03T01:30:28;2.50;;;1.80;;
52542;SDS011;38449;52.696;6.186;2023-04-03T01:32:57;3.25;;;1.63;;
52542;SDS011;38449;52.696;6.186;2023-04-03T01:35:24;5.05;;;2.22;;
52542;SDS011;38449;52.696;6.186;2023-04-03T01:37:50;2.60;;;1.83;;
52542;SDS011;38449;52.696;6.186;2023-04-03T01:40:18;2.13;;;1.70;;
52542;SDS011;38449;52.696;6.186;2023-04-03T01:42:44;3.17;;;1.65;;
52542;SDS011;38449;52.696;6.186;2023-04-03T01:45:10;3.42;;;2.53;;
52542;SDS011;38449;52.696;6.186;2023-04-03T01:47:37;3.45;;;1.75;;
52542;SDS011;38449;52.696;6.186;2023-04-03T01:50:03;5.03;;;1.98;;
52542;SDS011;38449;52.696;6.186;2023-04-03T01:52:30;2.65;;;1.98;;
52542;SDS011;38449;52.696;6.186;2023-04-03T01:54:56;4.00;;;2.25;;
52542;SDS011;38449;52.696;6.186;2023-04-03T01:57:22;2.97;;;1.65;;
52542;SDS011;38449;52.696;6.186;2023-04-03T01:59:49;3.05;;;2.10;;
52542;SDS011;38449;52.696;6.186;2023-04-03T02:02:15;4.40;;;2.30;;
52542;SDS011;38449;52.696;6.186;2023-04-03T02:04:42;2.95;;;2.35;;
52542;SDS011;38449;52.696;6.186;2023-04-03T02:07:08;4.28;;;2.40;;
52542;SDS011;38449;52.696;6.186;2023-04-03T02:09:34;3.92;;;2.20;;
52542;SDS011;38449;52.696;6.186;2023-04-03T02:12:01;4.32;;;2.35;;
52542;SDS011;38449;52.696;6.186;2023-04-03T02:14:27;2.72;;;1.65;;
52542;SDS011;38449;52.696;6.186;2023-04-03T02:16:54;5.25;;;2.40;;
52542;SDS011;38449;52.696;6.186;2023-04-03T02:19:20;4.22;;;2.42;;
52542;SDS011;38449;52.696;6.186;2023-04-03T02:21:46;5.28;;;2.05;;
52542;SDS011;38449;52.696;6.186;2023-04-03T02:24:13;5.13;;;1.85;;
52542;SDS011;38449;52.696;6.186;2023-04-03T02:26:39;4.15;;;2.00;;
52542;SDS011;38449;52.696;6.186;2023-04-03T02:29:05;3.33;;;2.17;;
52542;SDS011;38449;52.696;6.186;2023-04-03T02:31:31;5.20;;;2.20;;
52542;SDS011;38449;52.696;6.186;2023-04-03T02:33:58;6.03;;;2.22;;
52542;SDS011;38449;52.696;6.186;2023-04-03T02:36:24;5.00;;;1.75;;
52542;SDS011;38449;52.696;6.186;2023-04-03T02:38:50;3.70;;;2.30;;
52542;SDS011;38449;52.696;6.186;2023-04-03T02:41:16;3.42;;;2.30;;
52542;SDS011;38449;52.696;6.186;2023-04-03T02:43:43;5.07;;;2.22;;
52542;SDS011;38449;52.696;6.186;2023-04-03T02:46:16;5.03;;;2.00;;
52542;SDS011;38449;52.696;6.186;2023-04-03T02:48:42;3.70;;;2.22;;
52542;SDS011;38449;52.696;6.186;2023-04-03T02:51:08;4.57;;;2.53;;
52542;SDS011;38449;52.696;6.186;2023-04-03T02:53:41;4.07;;;2.38;;
52542;SDS011;38449;52.696;6.186;2023-04-03T02:56:14;4.68;;;2.47;;
52542;SDS011;38449;52.696;6.186;2023-04-03T02:58:41;4.60;;;2.67;;
52542;SDS011;38449;52.696;6.186;2023-04-03T03:01:07;3.30;;;3.00;;
52542;SDS011;38449;52.696;6.186;2023-04-03T03:03:34;4.15;;;2.20;;
52542;SDS011;38449;52.696;6.186;2023-04-03T03:06:10;4.50;;;2.72;;
52542;SDS011;38449;52.696;6.186;2023-04-03T03:08:39;4.32;;;2.10;;
52542;SDS011;38449;52.696;6.186;2023-04-03T03:11:06;5.07;;;2.42;;
52542;SDS011;38449;52.696;6.186;2023-04-03T03:13:32;5.80;;;2.20;;
52542;SDS011;38449;52.696;6.186;2023-04-03T03:16:02;4.22;;;2.60;;
52542;SDS011;38449;52.696;6.186;2023-04-03T03:18:29;5.40;;;2.22;;
52542;SDS011;38449;52.696;6.186;2023-04-03T03:20:56;3.47;;;2.60;;
52542;SDS011;38449;52.696;6.186;2023-04-03T03:23:24;3.10;;;2.00;;
52542;SDS011;38449;52.696;6.186;2023-04-03T03:25:56;3.72;;;2.28;;
52542;SDS011;38449;52.696;6.186;2023-04-03T03:30:50;4.80;;;2.58;;
52542;SDS011;38449;52.696;6.186;2023-04-03T03:33:17;3.38;;;2.03;;
52542;SDS011;38449;52.696;6.186;2023-04-03T03:35:44;3.88;;;2.40;;
52542;SDS011;38449;52.696;6.186;2023-04-03T03:38:11;6.13;;;3.05;;
52542;SDS011;38449;52.696;6.186;2023-04-03T03:40:38;4.88;;;2.60;;
52542;SDS011;38449;52.696;6.186;2023-04-03T03:43:04;5.13;;;2.35;;
52542;SDS011;38449;52.696;6.186;2023-04-03T03:45:30;4.03;;;2.40;;
52542;SDS011;38449;52.696;6.186;2023-04-03T03:47:57;5.43;;;2.55;;
52542;SDS011;38449;52.696;6.186;2023-04-03T03:50:23;4.07;;;2.33;;
52542;SDS011;38449;52.696;6.186;2023-04-03T03:52:50;5.88;;;3.05;;
52542;SDS011;38449;52.696;6.186;2023-04-03T03:55:16;6.72;;;3.05;;
52542;SDS011;38449;52.696;6.186;2023-04-03T03:57:43;4.45;;;2.90;;
52542;SDS011;38449;52.696;6.186;2023-04-03T04:00:09;3.72;;;2.30;;
52542;SDS011;38449;52.696;6.186;2023-04-03T04:02:43;4.43;;;2.88;;
52542;SDS011;38449;52.696;6.186;2023-04-03T04:05:22;4.97;;;2.40;;
52542;SDS011;38449;52.696;6.186;2023-04-03T04:07:48;5.05;;;2.85;;
52542;SDS011;38449;52.696;6.186;2023-04-03T04:10:15;5.43;;;2.97;;
52542;SDS011;38449;52.696;6.186;2023-04-03T04:12:41;5.95;;;2.70;;
52542;SDS011;38449;52.696;6.186;2023-04-03T04:15:07;4.28;;;3.42;;
52542;SDS011;38449;52.696;6.186;2023-04-03T04:17:34;5.40;;;2.67;;
52542;SDS011;38449;52.696;6.186;2023-04-03T04:20:02;4.85;;;3.05;;
52542;SDS011;38449;52.696;6.186;2023-04-03T04:22:36;5.35;;;3.28;;
52542;SDS011;38449;52.696;6.186;2023-04-03T04:25:03;5.88;;;3.10;;
52542;SDS011;38449;52.696;6.186;2023-04-03T04:27:30;4.13;;;2.60;;
52542;SDS011;38449;52.696;6.186;2023-04-03T04:30:04;4.03;;;3.45;;
52542;SDS011;38449;52.696;6.186;2023-04-03T04:32:31;3.83;;;2.50;;
52542;SDS011;38449;52.696;6.186;2023-04-03T04:34:58;4.53;;;2.50;;
52542;SDS011;38449;52.696;6.186;2023-04-03T04:37:24;4.50;;;3.42;;
52542;SDS011;38449;52.696;6.186;2023-04-03T04:39:52;7.47;;;2.75;;
52542;SDS011;38449;52.696;6.186;2023-04-03T04:42:19;3.72;;;2.80;;
52542;SDS011;38449;52.696;6.186;2023-04-03T04:44:45;3.80;;;2.47;;
52542;SDS011;38449;52.696;6.186;2023-04-03T04:49:49;5.65;;;2.53;;
52542;SDS011;38449;52.696;6.186;2023-04-03T04:52:22;5.72;;;3.13;;
52542;SDS011;38449;52.696;6.186;2023-04-03T04:54:49;6.15;;;3.10;;
52542;SDS011;38449;52.696;6.186;2023-04-03T04:57:15;3.78;;;3.30;;
52542;SDS011;38449;52.696;6.186;2023-04-03T04:59:43;5.13;;;2.55;;
52542;SDS011;38449;52.696;6.186;2023-04-03T05:02:09;6.25;;;3.00;;
52542;SDS011;38449;52.696;6.186;2023-04-03T05:04:35;5.05;;;2.97;;
52542;SDS011;38449;52.696;6.186;2023-04-03T05:07:01;4.40;;;2.95;;
52542;SDS011;38449;52.696;6.186;2023-04-03T05:09:28;5.70;;;2.88;;
52542;SDS011;38449;52.696;6.186;2023-04-03T05:11:54;3.80;;;2.85;;
52542;SDS011;38449;52.696;6.186;2023-04-03T05:14:22;6.10;;;2.47;;
52542;SDS011;38449;52.696;6.186;2023-04-03T05:16:48;4.25;;;2.80;;
52542;SDS011;38449;52.696;6.186;2023-04-03T05:19:18;3.53;;;2.90;;
52542;SDS011;38449;52.696;6.186;2023-04-03T05:21:47;5.80;;;4.00;;
52542;SDS011;38449;52.696;6.186;2023-04-03T05:24:13;4.65;;;3.28;;
52542;SDS011;38449;52.696;6.186;2023-04-03T05:26:40;7.90;;;3.13;;
52542;SDS011;38449;52.696;6.186;2023-04-03T05:29:07;5.97;;;3.20;;
52542;SDS011;38449;52.696;6.186;2023-04-03T05:31:34;5.97;;;3.10;;
52542;SDS011;38449;52.696;6.186;2023-04-03T05:34:01;5.35;;;3.30;;
52542;SDS011;38449;52.696;6.186;2023-04-03T05:36:28;7.20;;;3.58;;
52542;SDS011;38449;52.696;6.186;2023-04-03T05:38:54;5.93;;;2.63;;
52542;SDS011;38449;52.696;6.186;2023-04-03T05:41:22;4.60;;;2.75;;
52542;SDS011;38449;52.696;6.186;2023-04-03T05:43:48;7.25;;;3.08;;
52542;SDS011;38449;52.696;6.186;2023-04-03T05:46:16;4.55;;;2.63;;
52542;SDS011;38449;52.696;6.186;2023-04-03T05:48:44;4.57;;;3.10;;
52542;SDS011;38449;52.696;6.186;2023-04-03T05:51:14;6.10;;;3.00;;
52542;SDS011;38449;52.696;6.186;2023-04-03T05:53:43;6.95;;;2.97;;
52542;SDS011;38449;52.696;6.186;2023-04-03T05:56:11;3.67;;;2.78;;
52542;SDS011;38449;52.696;6.186;2023-04-03T05:58:37;4.88;;;2.90;;
52542;SDS011;38449;52.696;6.186;2023-04-03T06:01:03;4.07;;;2.42;;
52542;SDS011;38449;52.696;6.186;2023-04-03T06:03:31;7.97;;;3.65;;
52542;SDS011;38449;52.696;6.186;2023-04-03T06:06:04;4.15;;;2.55;;
52542;SDS011;38449;52.696;6.186;2023-04-03T06:08:35;6.78;;;2.33;;
52542;SDS011;38449;52.696;6.186;2023-04-03T06:11:09;3.63;;;2.67;;
52542;SDS011;38449;52.696;6.186;2023-04-03T06:13:35;5.25;;;2.70;;
52542;SDS011;38449;52.696;6.186;2023-04-03T06:16:04;4.78;;;2.33;;
52542;SDS011;38449;52.696;6.186;2023-04-03T06:18:31;5.35;;;3.45;;
52542;SDS011;38449;52.696;6.186;2023-04-03T06:20:57;3.58;;;2.50;;
52542;SDS011;38449;52.696;6.186;2023-04-03T06:23:24;4.93;;;2.50;;
52542;SDS011;38449;52.696;6.186;2023-04-03T06:25:51;5.20;;;2.67;;
52542;SDS011;38449;52.696;6.186;2023-04-03T06:28:17;4.25;;;3.08;;
52542;SDS011;38449;52.696;6.186;2023-04-03T06:30:45;4.55;;;2.25;;
52542;SDS011;38449;52.696;6.186;2023-04-03T06:33:12;6.28;;;2.47;;
52542;SDS011;38449;52.696;6.186;2023-04-03T06:35:38;5.20;;;2.70;;
52542;SDS011;38449;52.696;6.186;2023-04-03T06:38:04;7.15;;;2.47;;
52542;SDS011;38449;52.696;6.186;2023-04-03T06:40:35;4.68;;;2.53;;
52542;SDS011;38449;52.696;6.186;2023-04-03T06:43:01;5.45;;;2.40;;
52542;SDS011;38449;52.696;6.186;2023-04-03T06:45:29;5.95;;;2.80;;
52542;SDS011;38449;52.696;6.186;2023-04-03T06:47:55;5.63;;;2.65;;
52542;SDS011;38449;52.696;6.186;2023-04-03T06:50:21;5.40;;;2.38;;
52542;SDS011;38449;52.696;6.186;2023-04-03T06:52:48;5.97;;;2.65;;
52542;SDS011;38449;52.696;6.186;2023-04-03T06:55:14;7.00;;;2.33;;
52542;SDS011;38449;52.696;6.186;2023-04-03T06:57:42;6.35;;;2.63;;
52542;SDS011;38449;52.696;6.186;2023-04-03T07:00:08;3.95;;;2.50;;
52542;SDS011;38449;52.696;6.186;2023-04-03T07:02:37;5.70;;;2.88;;
52542;SDS011;38449;52.696;6.186;2023-04-03T07:05:04;5.15;;;2.63;;
52542;SDS011;38449;52.696;6.186;2023-04-03T07:07:31;3.83;;;2.70;;
52542;SDS011;38449;52.696;6.186;2023-04-03T07:10:00;4.22;;;2.38;;
52542;SDS011;38449;52.696;6.186;2023-04-03T07:12:26;5.22;;;2.50;;
52542;SDS011;38449;52.696;6.186;2023-04-03T07:14:53;5.90;;;1.98;;
52542;SDS011;38449;52.696;6.186;2023-04-03T07:17:19;4.70;;;1.95;;
52542;SDS011;38449;52.696;6.186;2023-04-03T07:19:45;4.93;;;2.33;;
52542;SDS011;38449;52.696;6.186;2023-04-03T07:22:15;5.63;;;2.80;;
52542;SDS011;38449;52.696;6.186;2023-04-03T07:24:41;5.13;;;2.22;;
52542;SDS011;38449;52.696;6.186;2023-04-03T07:27:09;3.78;;;2.63;;
52542;SDS011;38449;52.696;6.186;2023-04-03T07:29:36;5.28;;;2.55;;
52542;SDS011;38449;52.696;6.186;2023-04-03T07:32:02;4.43;;;2.17;;
52542;SDS011;38449;52.696;6.186;2023-04-03T07:34:29;5.60;;;1.92;;
52542;SDS011;38449;52.696;6.186;2023-04-03T07:36:56;3.53;;;2.42;;
52542;SDS011;38449;52.696;6.186;2023-04-03T07:39:24;5.95;;;2.72;;
52542;SDS011;38449;52.696;6.186;2023-04-03T07:41:51;4.88;;;2.10;;
52542;SDS011;38449;52.696;6.186;2023-04-03T07:44:17;3.22;;;2.20;;
52542;SDS011;38449;52.696;6.186;2023-04-03T07:46:44;5.47;;;2.30;;
52542;SDS011;38449;52.696;6.186;2023-04-03T07:49:10;4.45;;;1.45;;
52542;SDS011;38449;52.696;6.186;2023-04-03T07:51:36;3.97;;;2.10;;
52542;SDS011;38449;52.696;6.186;2023-04-03T07:54:03;3.92;;;1.58;;
52542;SDS011;38449;52.696;6.186;2023-04-03T07:56:29;4.22;;;2.17;;
52542;SDS011;38449;52.696;6.186;2023-04-03T07:58:57;3.85;;;2.03;;
52542;SDS011;38449;52.696;6.186;2023-04-03T08:01:23;3.78;;;2.08;;
52542;SDS011;38449;52.696;6.186;2023-04-03T08:03:59;3.55;;;2.20;;
52542;SDS011;38449;52.696;6.186;2023-04-03T08:06:25;4.60;;;2.10;;
52542;SDS011;38449;52.696;6.186;2023-04-03T08:08:52;3.85;;;2.17;;
52542;SDS011;38449;52.696;6.186;2023-04-03T08:14:19;5.45;;;2.08;;
52542;SDS011;38449;52.696;6.186;2023-04-03T08:16:46;5.68;;;1.92;;
52542;SDS011;38449;52.696;6.186;2023-04-03T08:19:17;6.13;;;2.00;;
52542;SDS011;38449;52.696;6.186;2023-04-03T08:21:44;4.50;;;2.10;;
52542;SDS011;38449;52.696;6.186;2023-04-03T08:24:18;4.10;;;1.88;;
52542;SDS011;38449;52.696;6.186;2023-04-03T08:26:44;3.05;;;1.73;;
52542;SDS011;38449;52.696;6.186;2023-04-03T08:29:11;3.35;;;1.85;;
52542;SDS011;38449;52.696;6.186;2023-04-03T08:31:43;3.35;;;2.03;;
52542;SDS011;38449;52.696;6.186;2023-04-03T08:34:10;4.43;;;1.90;;
52542;SDS011;38449;52.696;6.186;2023-04-03T08:36:43;4.07;;;1.75;;
52542;SDS011;38449;52.696;6.186;2023-04-03T08:39:10;4.47;;;1.80;;
52542;SDS011;38449;52.696;6.186;2023-04-03T08:41:47;4.70;;;1.70;;
52542;SDS011;38449;52.696;6.186;2023-04-03T08:44:15;3.65;;;1.75;;
52542;SDS011;38449;52.696;6.186;2023-04-03T08:52:36;2.80;;;1.48;;
52542;SDS011;38449;52.696;6.186;2023-04-03T08:55:15;3.08;;;1.40;;
52542;SDS011;38449;52.696;6.186;2023-04-03T08:57:43;2.92;;;1.60;;
52542;SDS011;38449;52.696;6.186;2023-04-03T09:02:47;3.20;;;1.42;;
52542;SDS011;38449;52.696;6.186;2023-04-03T09:05:20;3.15;;;1.58;;
52542;SDS011;38449;52.696;6.186;2023-04-03T09:13:59;4.38;;;1.50;;
52542;SDS011;38449;52.696;6.186;2023-04-03T09:16:43;1.77;;;1.08;;
52542;SDS011;38449;52.696;6.186;2023-04-03T09:19:21;2.97;;;1.70;;
52542;SDS011;38449;52.696;6.186;2023-04-03T09:21:58;2.78;;;1.88;;
52542;SDS011;38449;52.696;6.186;2023-04-03T09:24:30;3.03;;;1.50;;
52542;SDS011;38449;52.696;6.186;2023-04-03T09:27:03;3.13;;;1.60;;
52542;SDS011;38449;52.696;6.186;2023-04-03T09:29:34;3.33;;;2.03;;
52542;SDS011;38449;52.696;6.186;2023-04-03T09:32:39;3.72;;;1.58;;
52542;SDS011;38449;52.696;6.186;2023-04-03T09:37:48;3.00;;;1.48;;
52542;SDS011;38449;52.696;6.186;2023-04-03T09:42:55;3.17;;;1.67;;
52542;SDS011;38449;52.696;6.186;2023-04-03T09:45:32;2.20;;;1.50;;
52542;SDS011;38449;52.696;6.186;2023-04-03T09:48:34;2.20;;;1.42;;
52542;SDS011;38449;52.696;6.186;2023-04-03T09:51:00;2.63;;;1.10;;
52542;SDS011;38449;52.696;6.186;2023-04-03T09:56:00;2.03;;;1.40;;
52542;SDS011;38449;52.696;6.186;2023-04-03T09:58:33;2.72;;;1.50;;
52542;SDS011;38449;52.696;6.186;2023-04-03T10:01:04;2.40;;;1.40;;
52542;SDS011;38449;52.696;6.186;2023-04-03T10:03:32;2.60;;;1.40;;
52542;SDS011;38449;52.696;6.186;2023-04-03T10:06:03;4.53;;;1.30;;
52542;SDS011;38449;52.696;6.186;2023-04-03T10:08:33;2.08;;;1.23;;
52542;SDS011;38449;52.696;6.186;2023-04-03T10:11:08;2.03;;;0.98;;
52542;SDS011;38449;52.696;6.186;2023-04-03T10:14:21;3.35;;;1.48;;
52542;SDS011;38449;52.696;6.186;2023-04-03T10:16:43;2.47;;;1.38;;
52542;SDS011;38449;52.696;6.186;2023-04-03T10:22:24;1.40;;;0.82;;
52542;SDS011;38449;52.696;6.186;2023-04-03T10:38:07;4.82;;;1.15;;
52542;SDS011;38449;52.696;6.186;2023-04-03T10:41:02;2.50;;;1.27;;
52542;SDS011;38449;52.696;6.186;2023-04-03T10:43:43;1.38;;;0.93;;
52542;SDS011;38449;52.696;6.186;2023-04-03T10:46:52;5.13;;;1.40;;
52542;SDS011;38449;52.696;6.186;2023-04-03T10:57:19;2.65;;;1.13;;
52542;SDS011;38449;52.696;6.186;2023-04-03T10:59:58;2.78;;;1.40;;
52542;SDS011;38449;52.696;6.186;2023-04-03T11:02:30;2.08;;;1.40;;
52542;SDS011;38449;52.696;6.186;2023-04-03T11:05:42;2.28;;;1.13;;
52542;SDS011;38449;52.696;6.186;2023-04-03T11:08:08;2.88;;;1.60;;
52542;SDS011;38449;52.696;6.186;2023-04-03T11:10:47;4.78;;;1.40;;
52542;SDS011;38449;52.696;6.186;2023-04-03T11:15:52;2.50;;;1.20;;
52542;SDS011;38449;52.696;6.186;2023-04-03T11:18:25;2.95;;;1.58;;
52542;SDS011;38449;52.696;6.186;2023-04-03T11:21:06;2.83;;;1.33;;
52542;SDS011;38449;52.696;6.186;2023-04-03T11:23:40;3.80;;;1.30;;
52542;SDS011;38449;52.696;6.186;2023-04-03T11:26:13;3.38;;;1.50;;
52542;SDS011;38449;52.696;6.186;2023-04-03T11:28:51;4.05;;;1.75;;
52542;SDS011;38449;52.696;6.186;2023-04-03T11:31:31;2.05;;;1.70;;
52542;SDS011;38449;52.696;6.186;2023-04-03T11:36:43;3.15;;;1.58;;
52542;SDS011;38449;52.696;6.186;2023-04-03T11:39:28;2.67;;;1.48;;
52542;SDS011;38449;52.696;6.186;2023-04-03T11:42:14;1.70;;;1.20;;
52542;SDS011;38449;52.696;6.186;2023-04-03T11:44:48;3.63;;;1.40;;
52542;SDS011;38449;52.696;6.186;2023-04-03T11:47:43;2.60;;;1.60;;
52542;SDS011;38449;52.696;6.186;2023-04-03T11:53:02;3.33;;;1.52;;
52542;SDS011;38449;52.696;6.186;2023-04-03T11:55:56;2.28;;;1.10;;
52542;SDS011;38449;52.696;6.186;2023-04-03T11:58:26;2.25;;;1.60;;
52542;SDS011;38449;52.696;6.186;2023-04-03T12:01:10;2.40;;;1.10;;
52542;SDS011;38449;52.696;6.186;2023-04-03T12:04:03;2.50;;;1.38;;
52542;SDS011;38449;52.696;6.186;2023-04-03T12:09:26;3.30;;;1.70;;
52542;SDS011;38449;52.696;6.186;2023-04-03T12:11:56;2.53;;;1.52;;
52542;SDS011;38449;52.696;6.186;2023-04-03T12:14:24;2.28;;;1.23;;
52542;SDS011;38449;52.696;6.186;2023-04-03T12:16:55;3.75;;;1.55;;
52542;SDS011;38449;52.696;6.186;2023-04-03T12:19:30;3.55;;;1.70;;
52542;SDS011;38449;52.696;6.186;2023-04-03T12:24:40;2.10;;;1.48;;
52542;SDS011;38449;52.696;6.186;2023-04-03T12:35:31;2.90;;;1.50;;
52542;SDS011;38449;52.696;6.186;2023-04-03T12:44:32;2.03;;;1.58;;
52542;SDS011;38449;52.696;6.186;2023-04-03T12:47:23;3.20;;;1.70;;
52542;SDS011;38449;52.696;6.186;2023-04-03T12:49:53;3.78;;;1.90;;
52542;SDS011;38449;52.696;6.186;2023-04-03T12:55:08;3.35;;;1.80;;
52542;SDS011;38449;52.696;6.186;2023-04-03T12:57:40;2.60;;;1.42;;
52542;SDS011;38449;52.696;6.186;2023-04-03T13:03:06;3.05;;;1.52;;
52542;SDS011;38449;52.696;6.186;2023-04-03T13:05:48;2.55;;;1.45;;
52542;SDS011;38449;52.696;6.186;2023-04-03T13:08:14;3.22;;;1.55;;
52542;SDS011;38449;52.696;6.186;2023-04-03T13:10:49;4.15;;;1.98;;
52542;SDS011;38449;52.696;6.186;2023-04-03T13:13:26;2.58;;;1.60;;
52542;SDS011;38449;52.696;6.186;2023-04-03T13:15:53;3.10;;;1.73;;
52542;SDS011;38449;52.696;6.186;2023-04-03T13:18:31;2.67;;;1.50;;
52542;SDS011;38449;52.696;6.186;2023-04-03T13:21:02;2.20;;;1.30;;
52542;SDS011;38449;52.696;6.186;2023-04-03T13:23:31;2.58;;;1.60;;
52542;SDS011;38449;52.696;6.186;2023-04-03T13:26:00;2.95;;;1.58;;
52542;SDS011;38449;52.696;6.186;2023-04-03T13:28:29;3.55;;;2.15;;
52542;SDS011;38449;52.696;6.186;2023-04-03T13:33:36;4.68;;;1.70;;
52542;SDS011;38449;52.696;6.186;2023-04-03T13:36:07;3.72;;;1.60;;
52542;SDS011;38449;52.696;6.186;2023-04-03T13:38:41;2.63;;;1.70;;
52542;SDS011;38449;52.696;6.186;2023-04-03T13:41:29;3.53;;;1.83;;
52542;SDS011;38449;52.696;6.186;2023-04-03T13:44:16;3.05;;;1.60;;
52542;SDS011;38449;52.696;6.186;2023-04-03T13:46:49;4.20;;;1.67;;
52542;SDS011;38449;52.696;6.186;2023-04-03T13:51:49;2.78;;;1.80;;
52542;SDS011;38449;52.696;6.186;2023-04-03T13:56:54;3.70;;;1.63;;
52542;SDS011;38449;52.696;6.186;2023-04-03T14:01:54;3.65;;;1.55;;
52542;SDS011;38449;52.696;6.186;2023-04-03T14:04:43;4.35;;;2.10;;
52542;SDS011;38449;52.696;6.186;2023-04-03T14:07:10;3.97;;;2.15;;
52542;SDS011;38449;52.696;6.186;2023-04-03T14:09:37;2.80;;;1.33;;
52542;SDS011;38449;52.696;6.186;2023-04-03T14:15:02;5.55;;;2.22;;
52542;SDS011;38449;52.696;6.186;2023-04-03T14:17:31;2.38;;;1.35;;
52542;SDS011;38449;52.696;6.186;2023-04-03T14:19:57;3.05;;;1.67;;
52542;SDS011;38449;52.696;6.186;2023-04-03T14:22:24;3.20;;;1.60;;
52542;SDS011;38449;52.696;6.186;2023-04-03T14:24:54;4.50;;;1.92;;
52542;SDS011;38449;52.696;6.186;2023-04-03T14:27:22;3.28;;;1.92;;
52542;SDS011;38449;52.696;6.186;2023-04-03T14:29:50;4.03;;;1.90;;
52542;SDS011;38449;52.696;6.186;2023-04-03T14:32:21;3.70;;;1.90;;
52542;SDS011;38449;52.696;6.186;2023-04-03T14:34:48;4.82;;;1.98;;
52542;SDS011;38449;52.696;6.186;2023-04-03T14:37:18;3.47;;;2.05;;
52542;SDS011;38449;52.696;6.186;2023-04-03T14:39:47;2.78;;;1.73;;
52542;SDS011;38449;52.696;6.186;2023-04-03T14:42:16;3.33;;;2.10;;
52542;SDS011;38449;52.696;6.186;2023-04-03T14:44:47;4.07;;;1.52;;
52542;SDS011;38449;52.696;6.186;2023-04-03T14:47:15;3.00;;;1.63;;
52542;SDS011;38449;52.696;6.186;2023-04-03T14:49:44;3.67;;;2.13;;
52542;SDS011;38449;52.696;6.186;2023-04-03T14:52:24;3.25;;;1.67;;
52542;SDS011;38449;52.696;6.186;2023-04-03T14:54:57;3.33;;;1.80;;
52542;SDS011;38449;52.696;6.186;2023-04-03T14:57:27;3.67;;;1.80;;
52542;SDS011;38449;52.696;6.186;2023-04-03T14:59:55;5.50;;;2.40;;
52542;SDS011;38449;52.696;6.186;2023-04-03T15:04:54;3.83;;;1.92;;
52542;SDS011;38449;52.696;6.186;2023-04-03T15:07:21;2.47;;;1.67;;
52542;SDS011;38449;52.696;6.186;2023-04-03T15:09:49;4.45;;;2.22;;
52542;SDS011;38449;52.696;6.186;2023-04-03T15:12:15;3.03;;;2.40;;
52542;SDS011;38449;52.696;6.186;2023-04-03T15:14:42;4.25;;;1.90;;
52542;SDS011;38449;52.696;6.186;2023-04-03T15:17:12;2.92;;;2.03;;
52542;SDS011;38449;52.696;6.186;2023-04-03T15:19:41;3.20;;;2.17;;
52542;SDS011;38449;52.696;6.186;2023-04-03T15:22:14;3.65;;;2.30;;
52542;SDS011;38449;52.696;6.186;2023-04-03T15:24:43;3.35;;;1.95;;
52542;SDS011;38449;52.696;6.186;2023-04-03T15:27:10;2.95;;;1.75;;
52542;SDS011;38449;52.696;6.186;2023-04-03T15:29:38;4.93;;;1.73;;
52542;SDS011;38449;52.696;6.186;2023-04-03T15:32:05;3.05;;;1.80;;
52542;SDS011;38449;52.696;6.186;2023-04-03T15:34:31;4.07;;;2.33;;
52542;SDS011;38449;52.696;6.186;2023-04-03T15:36:58;4.57;;;1.92;;
52542;SDS011;38449;52.696;6.186;2023-04-03T15:39:25;2.60;;;1.63;;
52542;SDS011;38449;52.696;6.186;2023-04-03T15:41:52;7.57;;;3.63;;
52542;SDS011;38449;52.696;6.186;2023-04-03T15:44:19;4.47;;;2.15;;
52542;SDS011;38449;52.696;6.186;2023-04-03T15:46:46;3.33;;;2.30;;
52542;SDS011;38449;52.696;6.186;2023-04-03T15:49:20;4.32;;;2.05;;
52542;SDS011;38449;52.696;6.186;2023-04-03T15:51:47;3.28;;;2.20;;
52542;SDS011;38449;52.696;6.186;2023-04-03T15:54:13;3.50;;;2.00;;
52542;SDS011;38449;52.696;6.186;2023-04-03T15:56:41;5.30;;;1.85;;
52542;SDS011;38449;52.696;6.186;2023-04-03T15:59:07;3.08;;;1.73;;
52542;SDS011;38449;52.696;6.186;2023-04-03T16:01:33;4.20;;;2.28;;
52542;SDS011;38449;52.696;6.186;2023-04-03T16:04:00;4.30;;;2.50;;
52542;SDS011;38449;52.696;6.186;2023-04-03T16:06:27;4.18;;;2.33;;
52542;SDS011;38449;52.696;6.186;2023-04-03T16:08:56;2.90;;;1.88;;
52542;SDS011;38449;52.696;6.186;2023-04-03T16:11:26;5.97;;;1.92;;
52542;SDS011;38449;52.696;6.186;2023-04-03T16:13:53;3.28;;;2.38;;
52542;SDS011;38449;52.696;6.186;2023-04-03T16:16:20;3.78;;;2.42;;
52542;SDS011;38449;52.696;6.186;2023-04-03T16:18:46;4.00;;;2.00;;
52542;SDS011;38449;52.696;6.186;2023-04-03T16:21:13;4.28;;;2.15;;
52542;SDS011;38449;52.696;6.186;2023-04-03T16:23:41;6.72;;;2.50;;
52542;SDS011;38449;52.696;6.186;2023-04-03T16:26:08;4.82;;;2.05;;
52542;SDS011;38449;52.696;6.186;2023-04-03T16:28:34;4.05;;;2.20;;
52542;SDS011;38449;52.696;6.186;2023-04-03T16:31:01;3.72;;;2.10;;
52542;SDS011;38449;52.696;6.186;2023-04-03T16:33:29;3.60;;;2.08;;
52542;SDS011;38449;52.696;6.186;2023-04-03T16:36:04;3.75;;;2.13;;
52542;SDS011;38449;52.696;6.186;2023-04-03T16:38:30;4.28;;;2.30;;
52542;SDS011;38449;52.696;6.186;2023-04-03T16:40:57;2.97;;;2.08;;
52542;SDS011;38449;52.696;6.186;2023-04-03T16:43:25;3.78;;;2.20;;
52542;SDS011;38449;52.696;6.186;2023-04-03T16:45:52;4.53;;;1.83;;
52542;SDS011;38449;52.696;6.186;2023-04-03T16:48:19;3.70;;;2.10;;
52542;SDS011;38449;52.696;6.186;2023-04-03T16:50:48;3.65;;;2.00;;
52542;SDS011;38449;52.696;6.186;2023-04-03T16:53:22;4.57;;;2.10;;
52542;SDS011;38449;52.696;6.186;2023-04-03T16:55:49;3.90;;;1.90;;
52542;SDS011;38449;52.696;6.186;2023-04-03T16:58:16;4.57;;;2.60;;